Time;durP1;ratioP1;P1;durP2;ratioP2;P2;SDS_P1;SDS_P2;PMS_P1;PMS_P2;Temp;Humidity;BMP_temperature;BMP_pressure;BME280_temperature;BME280_humidity;BME280_pressure;Samples;Min_cycle;Max_cycle;Signal;HPM_P1;HPM_P2
2023/09/05 00:02:22;;;;;;;;;;;;;;;22.83;62.47;97245.29;592277;239;65012;-69
2023/09/05 00:04:49;;;;;;;;;;;;;;;22.82;61.66;97236.45;592271;239;67271;-69
2023/09/05 00:07:17;;;;;;;;;;;;;;;22.82;62.05;97241.81;592266;239;66869;-69
2023/09/05 00:09:44;;;;;;;;;;;;;;;22.81;62.08;97245.58;592278;239;62710;-69
2023/09/05 00:12:12;;;;;;;;;;;;;;;22.82;62.12;97252.53;592285;239;64670;-69
2023/09/05 00:14:40;;;;;;;;;;;;;;;22.82;62.52;97244.49;592291;239;66678;-69
2023/09/05 00:17:07;;;;;;;;;;;;;;;22.82;62.31;97247.17;584228;243;67654;-69
2023/09/05 00:19:35;;;;;;;;;;;;;;;22.83;62.42;97253.33;584269;243;67104;-69
2023/09/05 00:22:02;;;;;;;;;;;;;;;22.83;61.62;97242.61;584233;240;67232;-69
2023/09/05 00:24:37;;;;;;;;;;;;;;;22.83;62.15;97247.97;584260;243;64954;-68
2023/09/05 00:27:00;;;;;;;;;;;;;;;22.82;62.31;97244.49;584119;242;67403;-63
2023/09/05 00:29:30;;;;;;;;;;;;;;;22.82;62.13;97241.81;584278;243;66960;-63
2023/09/05 00:32:01;;;;;;;;;;;;;;;22.82;62.32;97239.13;584244;243;65253;-63
2023/09/05 00:34:31;;;;;;;;;;;;;;;22.82;61.55;97238.34;584274;243;64953;-63
2023/09/05 00:37:03;;;;;;;;;;;;;;;22.83;62.57;97237.25;583733;242;66939;-63
2023/09/05 00:39:31;;;;;;;;;;;;;;;22.83;62.54;97232.72;584296;243;65096;-63
2023/09/05 00:42:00;;;;;;;;;;;;;;;22.83;61.66;97232.72;584312;240;65357;-63
2023/09/05 00:44:28;;;;;;;;;;;;;;;22.82;62.20;97236.45;584270;243;64769;-63
2023/09/05 00:46:56;;;;;;;;;;;;;;;22.81;62.38;97236.75;584271;243;65318;-63
2023/09/05 00:49:27;;;;;;;;;;;;;;;22.82;62.82;97235.66;584281;243;65188;-63
2023/09/05 00:51:55;;;;;;;;;;;;;;;22.81;62.60;97231.39;584253;243;71875;-63
2023/09/05 00:54:22;;;;;;;;;;;;;;;22.81;62.31;97232.19;584260;243;64710;-63
2023/09/05 00:56:50;;;;;;;;;;;;;;;22.82;62.80;97228.41;584316;243;67948;-63
2023/09/05 00:59:19;;;;;;;;;;;;;;;22.81;62.89;97228.71;584277;243;67043;-63
2023/09/05 01:01:47;;;;;;;;;;;;;;;22.81;62.74;97224.14;584317;243;63111;-63
2023/09/05 01:04:14;;;;;;;;;;;;;;;22.80;62.83;97219.84;584241;243;66961;-63
2023/09/05 01:06:58;;;;;;;;;;;;;;;22.80;62.52;97211.81;584338;243;66993;-63
2023/09/05 01:09:27;;;;;;;;;;;;;;;22.80;62.25;97211.81;584280;241;63917;-63
2023/09/05 01:11:56;;;;;;;;;;;;;;;22.80;62.01;97211.81;584244;241;64348;-63
2023/09/05 01:14:23;;;;;;;;;;;;;;;22.79;62.51;97210.22;584299;243;66844;-63
2023/09/05 01:16:51;;;;;;;;;;;;;;;22.79;62.89;97202.18;593658;238;62684;-63
2023/09/05 01:19:18;;;;;;;;;;;;;;;22.79;62.69;97199.50;594865;238;67725;-63
2023/09/05 01:21:51;;;;;;;;;;;;;;;22.80;63.34;97205.66;594942;238;66814;-63
2023/09/05 01:24:22;;;;;;;;;;;;;;;22.79;63.08;97204.06;594685;238;65229;-62
2023/09/05 01:26:51;;;;;;;;;;;;;;;22.78;63.51;97197.91;594816;238;65408;-63
2023/09/05 01:29:26;;;;;;;;;;;;;;;22.77;63.04;97207.01;594863;238;66760;-63
2023/09/05 01:31:49;;;;;;;;;;;;;;;22.77;62.36;97207.01;594594;238;62690;-62
2023/09/05 01:34:16;;;;;;;;;;;;;;;22.78;62.37;97200.59;594896;238;65975;-62
2023/09/05 01:36:44;;;;;;;;;;;;;;;22.79;62.58;97202.18;594846;238;67381;-62
2023/09/05 01:39:12;;;;;;;;;;;;;;;22.78;62.98;97202.45;594853;238;65647;-62
2023/09/05 01:41:39;;;;;;;;;;;;;;;22.77;63.10;97196.29;594847;238;67858;-62
2023/09/05 01:44:07;;;;;;;;;;;;;;;22.77;62.28;97196.29;594867;238;65269;-62
2023/09/05 01:46:34;;;;;;;;;;;;;;;22.77;62.81;97185.58;594879;238;65381;-62
2023/09/05 01:49:02;;;;;;;;;;;;;;;22.78;62.57;97194.41;594856;238;64540;-62
2023/09/05 01:51:30;;;;;;;;;;;;;;;22.77;62.87;97198.97;594864;238;67266;-62
2023/09/05 01:53:57;;;;;;;;;;;;;;;22.77;62.61;97200.85;594886;238;62779;-69
2023/09/05 01:56:25;;;;;;;;;;;;;;;22.76;63.02;97200.06;594845;238;64265;-69
2023/09/05 01:58:52;;;;;;;;;;;;;;;22.77;63.06;97195.50;594822;238;67257;-69
2023/09/05 02:01:20;;;;;;;;;;;;;;;22.77;62.88;97201.65;594898;238;65027;-69
2023/09/05 02:03:49;;;;;;;;;;;;;;;22.77;62.67;97208.89;594843;238;67373;-69
2023/09/05 02:06:16;;;;;;;;;;;;;;;22.76;63.32;97218.81;594875;238;67106;-70
2023/09/05 02:08:44;;;;;;;;;;;;;;;22.77;63.38;97222.29;594864;238;62636;-70
2023/09/05 02:11:12;;;;;;;;;;;;;;;22.77;63.12;97227.65;594852;238;67740;-70
2023/09/05 02:13:40;;;;;;;;;;;;;;;22.76;63.58;97226.85;594890;238;67293;-70
2023/09/05 02:16:07;;;;;;;;;;;;;;;22.75;63.58;97227.94;593298;238;63062;-70
2023/09/05 02:18:35;;;;;;;;;;;;;;;22.76;62.75;97220.70;592300;239;67315;-69
2023/09/05 02:21:02;;;;;;;;;;;;;;;22.76;63.57;97232.21;592282;239;66637;-70
2023/09/05 02:23:31;;;;;;;;;;;;;;;22.75;62.93;97227.11;592276;239;64971;-69
2023/09/05 02:26:00;;;;;;;;;;;;;;;22.75;63.64;97229.80;592302;239;64633;-69
2023/09/05 02:28:28;;;;;;;;;;;;;;;22.75;63.38;97235.16;592267;239;64872;-69
2023/09/05 02:30:57;;;;;;;;;;;;;;;22.76;63.55;97232.21;592299;239;65260;-69
2023/09/05 02:33:24;;;;;;;;;;;;;;;22.75;63.42;97229.80;592307;239;67363;-69
2023/09/05 02:35:52;;;;;;;;;;;;;;;22.75;63.44;97219.08;592282;239;66964;-69
2023/09/05 02:38:19;;;;;;;;;;;;;;;22.74;63.42;97220.17;592304;239;65069;-69
2023/09/05 02:40:47;;;;;;;;;;;;;;;22.74;63.67;97223.64;592277;239;64936;-69
2023/09/05 02:43:15;;;;;;;;;;;;;;;22.74;63.11;97228.20;592302;239;64576;-69
2023/09/05 02:45:44;;;;;;;;;;;;;;;22.74;63.87;97228.20;592285;239;62775;-69
2023/09/05 02:48:12;;;;;;;;;;;;;;;22.73;63.40;97227.41;592122;239;66685;-70
2023/09/05 02:50:39;;;;;;;;;;;;;;;22.73;63.41;97230.09;592231;239;68198;-69
2023/09/05 02:53:07;;;;;;;;;;;;;;;22.73;63.72;97227.41;592309;239;63003;-62
2023/09/05 02:55:35;;;;;;;;;;;;;;;22.73;64.18;97230.09;592304;239;67382;-62
2023/09/05 02:58:02;;;;;;;;;;;;;;;22.73;63.62;97232.77;592266;239;67037;-62
2023/09/05 03:00:30;;;;;;;;;;;;;;;22.74;64.12;97236.24;592277;239;62659;-62
2023/09/05 03:02:58;;;;;;;;;;;;;;;22.73;63.74;97232.77;592281;239;64897;-69
2023/09/05 03:05:26;;;;;;;;;;;;;;;22.72;63.58;97239.19;592301;239;67312;-71
2023/09/05 03:07:55;;;;;;;;;;;;;;;22.73;63.69;97237.33;592312;239;64993;-71
2023/09/05 03:10:23;;;;;;;;;;;;;;;22.72;63.94;97239.19;592278;239;64445;-71
2023/09/05 03:12:51;;;;;;;;;;;;;;;22.73;64.25;97235.45;592268;239;67516;-71
2023/09/05 03:15:20;;;;;;;;;;;;;;;22.72;63.27;97239.19;592869;238;62321;-70
2023/09/05 03:17:48;;;;;;;;;;;;;;;22.72;63.89;97239.19;594906;238;68004;-71
2023/09/05 03:20:15;;;;;;;;;;;;;;;22.71;63.96;97237.59;594810;238;67031;-71
2023/09/05 03:22:43;;;;;;;;;;;;;;;22.71;63.72;97239.48;595259;236;65443;-71
2023/09/05 03:25:11;;;;;;;;;;;;;;;22.72;64.08;97246.42;597267;236;65668;-71
2023/09/05 03:27:39;;;;;;;;;;;;;;;22.71;63.71;97232.23;595338;236;64993;-71
2023/09/05 03:30:07;;;;;;;;;;;;;;;22.70;63.12;97230.65;600648;236;62834;-71
2023/09/05 03:32:35;;;;;;;;;;;;;;;22.70;62.51;97227.97;595317;236;67312;-71
2023/09/05 03:35:03;;;;;;;;;;;;;;;22.70;61.63;97227.97;594047;236;68223;-71
2023/09/05 03:37:30;;;;;;;;;;;;;;;22.70;62.54;97233.33;593538;236;65692;-71
2023/09/05 03:39:58;;;;;;;;;;;;;;;22.71;63.43;97229.56;593661;238;65030;-71
2023/09/05 03:42:25;;;;;;;;;;;;;;;22.71;62.86;97223.41;593705;238;64772;-71
2023/09/05 03:44:53;;;;;;;;;;;;;;;22.71;62.67;97234.92;594341;238;65953;-71
2023/09/05 03:47:20;;;;;;;;;;;;;;;22.71;63.59;97234.92;594303;238;65087;-71
2023/09/05 03:49:48;;;;;;;;;;;;;;;22.71;63.33;97234.92;594307;238;64968;-71
2023/09/05 03:52:15;;;;;;;;;;;;;;;22.71;63.45;97242.16;594783;238;65106;-71
2023/09/05 03:54:43;;;;;;;;;;;;;;;22.71;63.84;97244.84;594850;238;67230;-71
2023/09/05 03:57:11;;;;;;;;;;;;;;;22.70;63.04;97249.40;594925;238;66838;-71
2023/09/05 03:59:39;;;;;;;;;;;;;;;22.70;62.97;97253.93;594803;238;65665;-71
2023/09/05 04:02:06;;;;;;;;;;;;;;;22.69;62.97;97258.49;594832;238;67055;-71
2023/09/05 04:04:34;;;;;;;;;;;;;;;22.70;63.08;97259.29;594818;238;65141;-71
2023/09/05 04:07:01;;;;;;;;;;;;;;;22.69;62.83;97263.85;594835;238;64815;-71
2023/09/05 04:09:29;;;;;;;;;;;;;;;22.70;63.39;97275.36;594907;238;64816;-69
2023/09/05 04:11:56;;;;;;;;;;;;;;;22.69;63.83;97263.85;594872;238;65556;-62
2023/09/05 04:14:24;;;;;;;;;;;;;;;22.69;63.70;97271.09;588599;238;68160;-62
2023/09/05 04:16:52;;;;;;;;;;;;;;;22.68;64.08;97272.98;592548;238;64933;-62
2023/09/05 04:19:20;;;;;;;;;;;;;;;22.68;63.61;97278.33;592301;239;64664;-62
2023/09/05 04:21:47;;;;;;;;;;;;;;;22.69;63.07;97279.13;592369;239;62931;-62
2023/09/05 04:24:15;;;;;;;;;;;;;;;22.68;63.89;97281.02;592301;239;66872;-62
2023/09/05 04:26:44;;;;;;;;;;;;;;;22.69;64.05;97284.48;592285;239;64934;-62
2023/09/05 04:29:12;;;;;;;;;;;;;;;22.68;64.43;97289.05;592265;239;65213;-63
2023/09/05 04:31:39;;;;;;;;;;;;;;;22.68;63.99;97290.94;592297;239;67320;-63
2023/09/05 04:34:07;;;;;;;;;;;;;;;22.68;63.77;97282.90;592315;239;64721;-63
2023/09/05 04:36:36;;;;;;;;;;;;;;;22.67;64.21;97287.46;592336;239;65211;-63
2023/09/05 04:39:04;;;;;;;;;;;;;;;22.67;64.27;97287.46;592301;239;64928;-63
2023/09/05 04:41:31;;;;;;;;;;;;;;;22.67;64.07;97286.63;592266;239;67238;-63
2023/09/05 04:43:59;;;;;;;;;;;;;;;22.66;64.29;97280.48;592294;239;65091;-63
2023/09/05 04:46:37;;;;;;;;;;;;;;;22.67;64.08;97282.10;592319;239;67221;-63
2023/09/05 04:48:56;;;;;;;;;;;;;;;22.66;63.86;97275.13;592017;239;67228;-63
2023/09/05 04:51:23;;;;;;;;;;;;;;;22.66;63.90;97277.01;592297;239;64990;-63
2023/09/05 04:53:51;;;;;;;;;;;;;;;22.66;63.95;97275.13;592264;239;67285;-63
2023/09/05 04:56:19;;;;;;;;;;;;;;;22.66;64.03;97282.36;592286;239;66868;-63
2023/09/05 04:58:47;;;;;;;;;;;;;;;22.65;64.05;97276.20;592290;239;63809;-63
2023/09/05 05:01:16;;;;;;;;;;;;;;;22.65;64.01;97273.53;592345;239;67051;-63
2023/09/05 05:03:44;;;;;;;;;;;;;;;22.65;64.00;97281.56;592184;239;67021;-63
2023/09/05 05:06:11;;;;;;;;;;;;;;;22.65;63.87;97284.25;592289;239;64927;-63
2023/09/05 05:08:40;;;;;;;;;;;;;;;22.64;64.33;97282.63;592304;239;67042;-63
2023/09/05 05:11:07;;;;;;;;;;;;;;;22.65;64.44;97281.56;592316;239;66616;-63
2023/09/05 05:13:35;;;;;;;;;;;;;;;22.65;64.38;97283.45;592372;239;62752;-63
2023/09/05 05:16:02;;;;;;;;;;;;;;;22.64;63.89;97287.19;593732;238;64576;-63
2023/09/05 05:18:30;;;;;;;;;;;;;;;22.64;64.38;97287.98;594869;238;66811;-63
2023/09/05 05:20:58;;;;;;;;;;;;;;;22.64;63.95;97292.55;594857;238;63123;-63
2023/09/05 05:23:25;;;;;;;;;;;;;;;22.65;64.78;97294.16;594866;238;66973;-63
2023/09/05 05:25:53;;;;;;;;;;;;;;;22.64;65.10;97287.98;594895;238;66693;-63
2023/09/05 05:28:20;;;;;;;;;;;;;;;22.63;64.31;97280.23;594906;238;64875;-63
2023/09/05 05:30:48;;;;;;;;;;;;;;;22.64;64.05;97284.51;594902;238;66814;-63
2023/09/05 05:33:15;;;;;;;;;;;;;;;22.63;64.19;97282.92;594885;238;65703;-63
2023/09/05 05:35:43;;;;;;;;;;;;;;;22.63;63.93;97283.71;594857;238;64890;-63
2023/09/05 05:38:10;;;;;;;;;;;;;;;22.64;64.21;97281.83;594874;238;64741;-63
2023/09/05 05:40:38;;;;;;;;;;;;;;;22.63;64.44;97275.67;594911;238;64818;-63
2023/09/05 05:43:05;;;;;;;;;;;;;;;22.64;64.73;97277.27;594832;238;62741;-63
2023/09/05 05:45:33;;;;;;;;;;;;;;;22.62;64.04;97282.13;594860;238;65146;-70
2023/09/05 05:48:00;;;;;;;;;;;;;;;22.62;64.08;97287.48;594772;238;64560;-70
2023/09/05 05:50:27;;;;;;;;;;;;;;;22.62;63.78;97284.80;594863;238;63052;-70
2023/09/05 05:52:55;;;;;;;;;;;;;;;22.63;64.08;97280.23;594808;238;64950;-63
2023/09/05 05:55:23;;;;;;;;;;;;;;;22.61;63.99;97278.61;594864;238;64821;-64
2023/09/05 05:57:51;;;;;;;;;;;;;;;22.61;63.85;97278.61;594077;238;65097;-63
2023/09/05 06:00:18;;;;;;;;;;;;;;;22.61;63.90;97281.30;594852;238;67086;-63
2023/09/05 06:02:46;;;;;;;;;;;;;;;22.61;63.81;97277.82;594789;238;67122;-69
2023/09/05 06:05:13;;;;;;;;;;;;;;;22.62;63.78;97284.80;600141;236;62852;-69
2023/09/05 06:07:41;;;;;;;;;;;;;;;22.63;64.28;97291.75;601372;236;67194;-70
2023/09/05 06:10:09;;;;;;;;;;;;;;;22.61;64.08;97291.22;601528;236;67100;-72
2023/09/05 06:12:37;;;;;;;;;;;;;;;22.61;63.93;97296.57;601464;236;65050;-72
2023/09/05 06:15:05;;;;;;;;;;;;;;;22.61;63.93;97291.22;600821;236;64871;-69
2023/09/05 06:17:32;;;;;;;;;;;;;;;22.60;63.94;97298.45;597686;237;67027;-69
2023/09/05 06:20:00;;;;;;;;;;;;;;;22.60;64.40;97300.34;597616;237;65029;-69
2023/09/05 06:22:27;;;;;;;;;;;;;;;22.59;64.12;97309.45;597633;237;67083;-68
2023/09/05 06:24:55;;;;;;;;;;;;;;;22.59;64.21;97318.29;597651;237;66642;-69
2023/09/05 06:27:22;;;;;;;;;;;;;;;22.59;63.29;97318.29;597538;237;62737;-69
2023/09/05 06:29:50;;;;;;;;;;;;;;;22.60;63.56;97319.88;598692;236;64883;-70
2023/09/05 06:32:17;;;;;;;;;;;;;;;22.61;63.95;97331.39;600503;236;65140;-70
2023/09/05 06:34:46;;;;;;;;;;;;;;;22.62;64.54;97330.34;600476;236;62727;-64
2023/09/05 06:37:13;;;;;;;;;;;;;;;22.62;63.83;97354.45;600482;236;65856;-64
2023/09/05 06:39:41;;;;;;;;;;;;;;;22.62;64.39;97346.41;600430;236;64792;-64
2023/09/05 06:42:10;;;;;;;;;;;;;;;22.61;63.61;97358.98;600470;236;62939;-64
2023/09/05 06:44:40;;;;;;;;;;;;;;;22.62;63.62;97354.45;600558;236;65838;-63
2023/09/05 06:47:07;;;;;;;;;;;;;;;22.64;64.78;97372.91;600467;236;66903;-63
2023/09/05 06:49:35;;;;;;;;;;;;;;;22.64;63.87;97371.02;600573;236;64873;-63
2023/09/05 06:52:02;;;;;;;;;;;;;;;22.64;64.54;97373.70;600565;236;66998;-63
2023/09/05 06:54:30;;;;;;;;;;;;;;;22.63;64.04;97374.79;600494;236;67260;-64
2023/09/05 06:56:58;;;;;;;;;;;;;;;22.64;63.83;97373.70;600482;236;63807;-64
2023/09/05 06:59:26;;;;;;;;;;;;;;;22.64;64.29;97379.06;600548;236;65101;-64
2023/09/05 07:01:53;;;;;;;;;;;;;;;22.64;64.81;97384.42;600470;236;64769;-63
2023/09/05 07:04:21;;;;;;;;;;;;;;;22.63;64.41;97398.90;600458;236;65161;-64
2023/09/05 07:06:50;;;;;;;;;;;;;;;22.65;64.37;97396.76;600603;236;67273;-63
2023/09/05 07:09:17;;;;;;;;;;;;;;;22.65;65.12;97396.76;600445;236;64961;-62
2023/09/05 07:11:45;;;;;;;;;;;;;;;22.65;65.35;97394.08;600543;236;65124;-63
2023/09/05 07:14:13;;;;;;;;;;;;;;;22.65;64.13;97391.40;600554;236;67252;-63
2023/09/05 07:16:40;;;;;;;;;;;;;;;22.66;64.62;97390.31;601155;235;64816;-63
2023/09/05 07:19:08;;;;;;;;;;;;;;;22.66;64.99;97398.35;601379;236;62827;-64
2023/09/05 07:21:40;;;;;;;;;;;;;;;22.66;64.74;97394.87;601318;236;67122;-64
2023/09/05 07:24:11;;;;;;;;;;;;;;;22.66;64.59;97394.87;600972;236;66613;-63
2023/09/05 07:26:41;;;;;;;;;;;;;;;22.66;64.79;97392.20;599921;236;46121;-65
2023/09/05 07:29:20;;;;;;;;;;;;;;;22.66;62.67;97392.20;601062;236;48339;-63
2023/09/05 07:31:53;;;;;;;;;;;;;;;22.68;64.61;97393.53;594806;236;44504;-62
2023/09/05 07:34:22;;;;;;;;;;;;;;;22.68;65.16;97401.56;595371;236;46309;-63
2023/09/05 07:36:49;;;;;;;;;;;;;;;22.69;65.77;97413.08;601340;236;64713;-64
2023/09/05 07:39:17;;;;;;;;;;;;;;;22.70;66.26;97403.95;601349;236;66810;-62
2023/09/05 07:41:44;;;;;;;;;;;;;;;22.69;65.38;97402.37;601369;236;62820;-62
2023/09/05 07:44:12;;;;;;;;;;;;;;;22.70;66.35;97398.60;601280;236;64818;-62
2023/09/05 07:46:39;;;;;;;;;;;;;;;22.68;66.22;97404.25;601306;236;65279;-62
2023/09/05 07:49:07;;;;;;;;;;;;;;;22.71;66.37;97405.58;601380;236;65171;-62
2023/09/05 07:51:34;;;;;;;;;;;;;;;22.68;61.01;97400.77;601326;236;67194;-61
2023/09/05 07:54:03;;;;;;;;;;;;;;;22.69;62.30;97407.72;601367;236;67079;-62
2023/09/05 07:56:31;;;;;;;;;;;;;;;22.71;64.71;97406.38;601372;236;62938;-62
2023/09/05 07:58:59;;;;;;;;;;;;;;;22.72;64.89;97399.94;601255;236;67173;-63
2023/09/05 08:01:26;;;;;;;;;;;;;;;22.72;64.46;97394.58;601397;236;63722;-63
2023/09/05 08:03:54;;;;;;;;;;;;;;;22.74;64.84;97388.95;601386;236;62779;-63
2023/09/05 08:06:21;;;;;;;;;;;;;;;22.72;63.96;97383.86;601338;236;66877;-62
2023/09/05 08:08:49;;;;;;;;;;;;;;;22.74;64.34;97388.95;601362;236;66917;-62
2023/09/05 08:11:16;;;;;;;;;;;;;;;22.71;62.28;97395.66;601265;236;63852;-62
2023/09/05 08:13:44;;;;;;;;;;;;;;;22.73;63.59;97392.72;601285;236;65261;-62
2023/09/05 08:16:11;;;;;;;;;;;;;;;22.74;65.11;97394.31;601239;236;64731;-62
2023/09/05 08:18:39;;;;;;;;;;;;;;;22.72;65.17;97399.94;601349;236;64956;-67
2023/09/05 08:21:07;;;;;;;;;;;;;;;22.71;64.67;97398.34;601243;236;67304;-67
2023/09/05 08:23:34;;;;;;;;;;;;;;;22.72;64.80;97405.30;601332;236;67030;-67
2023/09/05 08:26:02;;;;;;;;;;;;;;;22.72;64.15;97409.85;601347;236;64731;-67
2023/09/05 08:28:33;;;;;;;;;;;;;;;22.72;64.86;97409.85;601310;236;64950;-67
2023/09/05 08:31:00;;;;;;;;;;;;;;;22.70;64.23;97410.14;601278;236;65092;-67
2023/09/05 08:33:29;;;;;;;;;;;;;;;22.71;65.25;97406.38;601327;236;65165;-68
2023/09/05 08:35:56;;;;;;;;;;;;;;;22.72;65.62;97417.89;601287;236;65828;-68
2023/09/05 08:38:24;;;;;;;;;;;;;;;22.69;65.08;97411.20;601384;236;66867;-68
2023/09/05 08:40:51;;;;;;;;;;;;;;;22.70;64.37;97401.28;601300;236;64877;-62
2023/09/05 08:43:19;;;;;;;;;;;;;;;22.69;64.83;97400.48;601309;236;67091;-62
2023/09/05 08:45:47;;;;;;;;;;;;;;;22.69;65.34;97408.52;601384;236;65146;-62
2023/09/05 08:48:14;;;;;;;;;;;;;;;22.71;65.89;97424.34;601317;236;62829;-62
2023/09/05 08:50:42;;;;;;;;;;;;;;;22.70;65.54;97420.03;601363;236;67118;-62
2023/09/05 08:53:14;;;;;;;;;;;;;;;22.70;65.18;97411.99;601379;236;66938;-63
2023/09/05 08:55:42;;;;;;;;;;;;;;;22.70;65.41;97412.83;601294;236;62617;-62
2023/09/05 08:58:14;;;;;;;;;;;;;;;22.70;65.64;97410.14;601346;236;67165;-61
2023/09/05 09:00:43;;;;;;;;;;;;;;;22.70;65.88;97409.31;601379;236;67503;-63
2023/09/05 09:03:10;;;;;;;;;;;;;;;22.69;65.40;97413.88;601308;236;64931;-63
2023/09/05 09:05:38;;;;;;;;;;;;;;;22.69;64.97;97405.84;601451;236;67095;-63
2023/09/05 09:08:07;;;;;;;;;;;;;;;22.70;65.60;97415.50;601368;236;66921;-63
2023/09/05 09:10:34;;;;;;;;;;;;;;;22.70;64.88;97403.95;601332;236;65123;-64
2023/09/05 09:13:15;;;;;;;;;;;;;;;22.69;65.60;97408.52;601307;236;67240;-61
2023/09/05 09:15:43;;;;;;;;;;;;;;;22.68;65.01;97395.41;601339;236;66974;-62
2023/09/05 09:18:12;;;;;;;;;;;;;;;22.69;66.03;97397.80;601378;236;63663;-62
2023/09/05 09:20:44;;;;;;;;;;;;;;;22.69;65.62;97408.52;601399;236;66715;-65
2023/09/05 09:23:11;;;;;;;;;;;;;;;22.69;65.85;97394.33;601128;236;64409;-64
2023/09/05 09:25:48;;;;;;;;;;;;;;;22.69;64.56;97402.37;601337;236;65179;-63
2023/09/05 09:28:22;;;;;;;;;;;;;;;22.68;64.88;97403.45;601400;236;67246;-64
2023/09/05 09:30:57;;;;;;;;;;;;;;;22.68;65.36;97404.25;601342;236;67036;-64
2023/09/05 09:33:24;;;;;;;;;;;;;;;22.69;66.29;97403.16;601402;236;64893;-65
2023/09/05 09:36:04;;;;;;;;;;;;;;;22.69;66.63;97402.37;601461;236;66641;-65
2023/09/05 09:38:32;;;;;;;;;;;;;;;22.67;65.61;97402.66;601354;236;64600;-64
2023/09/05 09:41:03;;;;;;;;;;;;;;;22.68;66.39;97404.25;601371;236;62717;-64
2023/09/05 09:43:31;;;;;;;;;;;;;;;22.68;65.26;97406.92;601373;236;67211;-65
2023/09/05 09:46:00;;;;;;;;;;;;;;;22.68;65.44;97414.97;601322;236;67013;-65
2023/09/05 09:48:29;;;;;;;;;;;;;;;22.67;65.58;97401.83;601460;236;63647;-71
2023/09/05 09:50:57;;;;;;;;;;;;;;;22.68;65.61;97398.89;601410;236;67388;-70
2023/09/05 09:53:26;;;;;;;;;;;;;;;22.69;65.59;97405.05;601341;236;67052;-71
2023/09/05 09:55:54;;;;;;;;;;;;;;;22.68;65.80;97404.25;600625;236;63671;-71
2023/09/05 09:58:23;;;;;;;;;;;;;;;22.68;65.10;97409.61;599613;236;64922;-71
2023/09/05 10:00:51;;;;;;;;;;;;;;;22.68;64.82;97406.92;601282;236;67074;-72
2023/09/05 10:03:20;;;;;;;;;;;;;;;22.68;65.36;97404.25;601385;236;62752;-71
2023/09/05 10:05:48;;;;;;;;;;;;;;;22.68;65.28;97401.56;601350;236;67278;-70
2023/09/05 10:08:16;;;;;;;;;;;;;;;22.68;65.26;97406.92;596898;236;66907;-70
2023/09/05 10:10:43;;;;;;;;;;;;;;;22.68;65.07;97406.12;597944;236;64845;-71
2023/09/05 10:13:11;;;;;;;;;;;;;;;22.69;65.58;97407.72;598702;236;65207;-69
2023/09/05 10:15:42;;;;;;;;;;;;;;;22.69;65.91;97408.52;598725;236;65151;-72
2023/09/05 10:18:10;;;;;;;;;;;;;;;22.69;65.77;97410.41;596134;237;65226;-71
2023/09/05 10:20:39;;;;;;;;;;;;;;;22.68;65.45;97406.92;596413;237;65743;-71
2023/09/05 10:23:07;;;;;;;;;;;;;;;22.68;64.85;97411.48;596775;237;64091;-69
2023/09/05 10:25:36;;;;;;;;;;;;;;;22.68;66.01;97404.25;593109;237;65050;-70
2023/09/05 10:28:04;;;;;;;;;;;;;;;22.68;65.86;97401.56;597939;237;65101;-70
2023/09/05 10:30:43;;;;;;;;;;;;;;;22.69;65.34;97394.33;595213;237;67107;-69
2023/09/05 10:33:11;;;;;;;;;;;;;;;22.69;65.93;97386.30;592181;239;63083;-68
2023/09/05 10:35:42;;;;;;;;;;;;;;;22.69;65.78;97388.97;593434;237;67051;-70
2023/09/05 10:38:09;;;;;;;;;;;;;;;22.69;65.84;97387.09;598307;237;64986;-73
2023/09/05 10:40:37;;;;;;;;;;;;;;;22.68;65.95;97396.21;598725;237;63091;-70
2023/09/05 10:43:06;;;;;;;;;;;;;;;22.69;65.45;97403.16;598624;237;67490;-70
2023/09/05 10:45:35;;;;;;;;;;;;;;;22.68;65.02;97406.92;598768;237;65209;-70
2023/09/05 10:48:05;;;;;;;;;;;;;;;22.68;65.10;97396.21;594357;237;65047;-72
2023/09/05 10:50:33;;;;;;;;;;;;;;;22.68;65.10;97409.61;594430;237;67197;-71
2023/09/05 10:53:13;;;;;;;;;;;;;;;22.68;65.51;97398.89;593387;237;65018;-72
2023/09/05 10:55:46;;;;;;;;;;;;;;;22.68;65.42;97398.09;593391;237;65126;-72
2023/09/05 10:58:32;;;;;;;;;;;;;;;22.68;65.97;97401.56;598724;237;64818;-72
2023/09/05 11:01:00;;;;;;;;;;;;;;;22.67;65.50;97405.33;596856;237;66934;-69
2023/09/05 11:03:29;;;;;;;;;;;;;;;22.67;65.75;97408.02;595204;237;65078;-68
2023/09/05 11:05:58;;;;;;;;;;;;;;;22.68;65.87;97408.81;591953;239;67413;-69
2023/09/05 11:08:27;;;;;;;;;;;;;;;22.67;66.27;97408.02;596931;237;65101;-69
2023/09/05 11:10:55;;;;;;;;;;;;;;;22.66;65.75;97403.70;597376;237;63066;-69
2023/09/05 11:13:23;;;;;;;;;;;;;;;22.66;65.67;97392.99;592161;239;67276;-68
2023/09/05 11:15:52;;;;;;;;;;;;;;;22.66;65.23;97394.87;592169;239;65805;-68
2023/09/05 11:18:21;;;;;;;;;;;;;;;22.67;65.27;97389.26;596994;237;63238;-69
2023/09/05 11:20:49;;;;;;;;;;;;;;;22.67;65.60;97389.26;595275;237;67085;-69
2023/09/05 11:23:21;;;;;;;;;;;;;;;22.66;65.70;97379.59;593691;237;64648;-69
2023/09/05 11:25:50;;;;;;;;;;;;;;;22.66;65.70;97368.88;598691;237;62698;-69
2023/09/05 11:28:18;;;;;;;;;;;;;;;22.66;65.73;97366.20;593465;237;67250;-69
2023/09/05 11:30:46;;;;;;;;;;;;;;;22.66;65.09;97366.20;593639;237;65139;-69
2023/09/05 11:33:15;;;;;;;;;;;;;;;22.67;65.97;97367.00;594486;237;63050;-71
2023/09/05 11:35:43;;;;;;;;;;;;;;;22.66;65.79;97368.88;596644;237;67362;-71
2023/09/05 11:38:11;;;;;;;;;;;;;;;22.66;64.61;97363.53;592188;239;64839;-72
2023/09/05 11:40:41;;;;;;;;;;;;;;;22.67;65.12;97361.64;595788;237;65174;-72
2023/09/05 11:43:09;;;;;;;;;;;;;;;22.66;65.75;97355.48;595014;237;67306;-72
2023/09/05 11:45:37;;;;;;;;;;;;;;;22.67;65.66;97346.39;595124;237;64744;-72
2023/09/05 11:48:07;;;;;;;;;;;;;;;22.66;65.71;97360.84;592245;239;66122;-71
2023/09/05 11:50:34;;;;;;;;;;;;;;;22.66;64.94;97355.48;594514;237;65362;-70
2023/09/05 11:53:03;;;;;;;;;;;;;;;22.66;64.93;97350.13;594278;237;64702;-70
2023/09/05 11:55:31;;;;;;;;;;;;;;;22.66;65.20;97350.13;598688;237;63001;-69
2023/09/05 11:57:59;;;;;;;;;;;;;;;22.67;64.66;97351.75;598631;237;64781;-67
2023/09/05 12:00:27;;;;;;;;;;;;;;;22.66;64.26;97352.81;593743;237;67141;-68
2023/09/05 12:02:56;;;;;;;;;;;;;;;22.66;64.58;97344.77;596576;237;65219;-69
2023/09/05 12:05:24;;;;;;;;;;;;;;;22.66;63.68;97354.69;592180;239;67274;-68
2023/09/05 12:07:56;;;;;;;;;;;;;;;22.66;65.00;97350.13;592202;239;67006;-67
2023/09/05 12:10:29;;;;;;;;;;;;;;;22.65;64.55;97351.22;592853;237;62933;-70
2023/09/05 12:13:02;;;;;;;;;;;;;;;22.66;65.25;97343.98;596295;237;64914;-70
2023/09/05 12:15:30;;;;;;;;;;;;;;;22.65;64.39;97337.83;596991;236;66969;-70
2023/09/05 12:17:59;;;;;;;;;;;;;;;22.65;65.20;97343.19;594626;238;62808;-70
2023/09/05 12:20:27;;;;;;;;;;;;;;;22.66;65.45;97339.42;595853;236;67015;-69
2023/09/05 12:22:55;;;;;;;;;;;;;;;22.66;64.08;97333.27;597607;236;67091;-69
2023/09/05 12:25:24;;;;;;;;;;;;;;;22.66;64.98;97333.27;594411;238;64944;-68
2023/09/05 12:27:55;;;;;;;;;;;;;;;22.66;64.71;97338.62;594161;238;67067;-68
2023/09/05 12:30:28;;;;;;;;;;;;;;;22.67;64.36;97334.85;594764;238;65087;-69
2023/09/05 12:32:56;;;;;;;;;;;;;;;22.66;64.93;97336.73;594819;238;62775;-69
2023/09/05 12:35:25;;;;;;;;;;;;;;;22.67;64.93;97341.03;594797;238;67118;-69
2023/09/05 12:37:54;;;;;;;;;;;;;;;22.66;65.03;97333.27;594799;238;65083;-69
2023/09/05 12:40:22;;;;;;;;;;;;;;;22.67;64.77;97338.36;594801;238;64997;-69
2023/09/05 12:42:50;;;;;;;;;;;;;;;22.66;64.99;97328.70;594753;238;65199;-70
2023/09/05 12:45:18;;;;;;;;;;;;;;;22.66;64.02;97331.38;594737;238;68269;-69
2023/09/05 12:47:52;;;;;;;;;;;;;;;22.65;64.81;97327.11;594792;238;65681;-69
2023/09/05 12:50:32;;;;;;;;;;;;;;;22.66;64.45;97323.34;594736;238;70227;-69
2023/09/05 12:53:04;;;;;;;;;;;;;;;22.67;65.20;97324.14;594725;238;64894;-69
2023/09/05 12:55:32;;;;;;;;;;;;;;;22.66;64.71;97328.70;594790;238;65064;-69